createdAt,value
2019-02-23T00:00:48.421Z,7.77
2019-02-23T00:03:21.036Z,8.80
2019-02-23T00:05:53.972Z,8.30
2019-02-23T00:08:26.563Z,8.63
2019-02-23T00:10:58.245Z,8.13
2019-02-23T00:13:32.235Z,9.30
2019-02-23T00:16:03.277Z,9.30
2019-02-23T00:18:42.641Z,8.20
2019-02-23T00:21:18.883Z,8.53
2019-02-23T00:23:50.474Z,8.47
2019-02-23T00:26:32.695Z,9.17
2019-02-23T00:29:03.465Z,9.80
2019-02-23T00:31:35.387Z,11.13
2019-02-23T00:34:07.089Z,11.10
2019-02-23T00:36:38.532Z,10.37
2019-02-23T00:39:09.896Z,10.17
2019-02-23T00:41:41.937Z,9.50
2019-02-23T00:44:15.761Z,9.87
2019-02-23T00:46:46.776Z,9.90
2019-02-23T00:49:19.934Z,9.13
2019-02-23T00:51:52.071Z,9.30
2019-02-23T00:54:23.704Z,10.90
2019-02-23T00:56:55.052Z,10.37
2019-02-23T00:59:26.112Z,10.70
2019-02-23T01:01:57.148Z,11.73
2019-02-23T01:04:28.576Z,11.03
2019-02-23T01:07:00.167Z,11.60
2019-02-23T01:09:31.851Z,11.70
2019-02-23T01:12:03.098Z,11.63
2019-02-23T01:14:34.304Z,11.77
2019-02-23T01:17:15.751Z,13.40
2019-02-23T01:19:48.111Z,11.57
2019-02-23T01:22:30.944Z,11.80
2019-02-23T01:25:02.608Z,11.63
2019-02-23T01:27:50.639Z,11.77
2019-02-23T01:30:21.962Z,11.37
2019-02-23T01:33:24.549Z,11.43
2019-02-23T01:36:04.101Z,10.17
2019-02-23T01:38:35.732Z,8.40
2019-02-23T01:41:06.942Z,9.23
2019-02-23T01:43:38.783Z,10.07
2019-02-23T01:46:12.276Z,9.70
2019-02-23T01:48:44.328Z,10.53
2019-02-23T01:55:04.201Z,9.53
2019-02-23T01:57:35.695Z,10.60
2019-02-23T02:01:01.486Z,10.20
2019-02-23T03:01:59.094Z,22.03
2019-02-23T03:04:31.135Z,18.87
2019-02-23T03:07:02.515Z,17.67
2019-02-23T03:09:34.494Z,14.70
2019-02-23T03:12:05.518Z,14.67
2019-02-23T03:14:37.153Z,13.67
2019-02-23T03:17:07.870Z,12.53
2019-02-23T03:20:35.891Z,12.70
2019-02-23T03:22:56.424Z,12.00
2019-02-23T03:25:27.482Z,11.87
2019-02-23T03:27:58.213Z,11.83
2019-02-23T03:30:30.238Z,11.83
2019-02-23T03:33:01.243Z,14.40
2019-02-23T03:39:55.893Z,12.83
2019-02-23T03:42:27.633Z,12.67
2019-02-23T03:44:58.976Z,12.60
2019-02-23T03:47:30.015Z,12.90
2019-02-23T03:50:01.391Z,9.80
2019-02-23T03:52:32.939Z,9.90
2019-02-23T03:55:03.719Z,10.33
2019-02-23T03:57:34.770Z,10.67
2019-02-23T04:00:07.689Z,10.00
2019-02-23T04:02:38.363Z,10.60
2019-02-23T04:05:09.741Z,10.67
2019-02-23T04:07:40.420Z,9.90
2019-02-23T04:10:11.871Z,11.00
2019-02-23T04:12:43.713Z,10.37
2019-02-23T04:15:14.324Z,9.63
2019-02-23T04:17:46.332Z,10.03
2019-02-23T04:20:16.697Z,11.00
2019-02-23T04:22:48.413Z,10.67
2019-02-23T04:25:19.374Z,10.53
2019-02-23T04:27:50.685Z,10.70
2019-02-23T04:30:21.742Z,10.33
2019-02-23T04:32:53.218Z,10.47
2019-02-23T04:35:24.689Z,10.73
2019-02-23T04:38:32.070Z,10.63
2019-02-23T04:41:03.213Z,10.73
2019-02-23T04:43:35.019Z,9.40
2019-02-23T04:46:06.016Z,10.30
2019-02-23T04:48:37.399Z,10.90
2019-02-23T04:51:14.236Z,9.47
2019-02-23T04:53:41.508Z,9.30
2019-02-23T04:56:12.879Z,10.03
2019-02-23T04:58:43.949Z,10.00
2019-02-23T05:01:15.652Z,9.83
2019-02-23T05:03:47.426Z,11.00
2019-02-23T05:06:19.149Z,10.23
2019-02-23T05:08:50.428Z,10.53
2019-02-23T05:14:33.464Z,10.57
2019-02-23T05:17:05.387Z,10.53
2019-02-23T05:19:36.552Z,10.50
2019-02-23T05:22:07.557Z,11.40
2019-02-23T05:24:38.918Z,9.73
2019-02-23T05:27:10.636Z,11.00
2019-02-23T05:29:41.911Z,9.47
2019-02-23T05:32:13.283Z,10.57
2019-02-23T05:34:44.702Z,9.83
2019-02-23T05:37:16.879Z,10.57
2019-02-23T05:40:36.317Z,10.57
2019-02-23T05:43:08.004Z,9.63
2019-02-23T05:45:39.388Z,10.53
2019-02-23T05:48:11.373Z,11.07
2019-02-23T05:50:43.180Z,10.17
2019-02-23T05:53:14.305Z,11.17
2019-02-23T05:55:45.802Z,11.57
2019-02-23T05:58:17.334Z,12.23
2019-02-23T06:01:04.374Z,11.73
2019-02-23T06:03:35.015Z,10.77
2019-02-23T06:06:06.335Z,10.77
2019-02-23T06:08:37.614Z,11.07
2019-02-23T06:11:08.724Z,11.67
2019-02-23T06:13:40.321Z,10.90
2019-02-23T06:16:11.311Z,11.77
2019-02-23T06:18:42.627Z,11.93
2019-02-23T06:21:13.619Z,11.77
2019-02-23T06:23:44.936Z,12.63
2019-02-23T06:26:16.287Z,11.07
2019-02-23T06:28:51.177Z,11.80
2019-02-23T06:31:22.176Z,10.63
2019-02-23T06:33:54.102Z,10.70
2019-02-23T06:36:25.085Z,10.27
2019-02-23T06:38:56.817Z,9.03
2019-02-23T06:41:28.453Z,12.00
2019-02-23T06:44:00.106Z,11.13
2019-02-23T06:46:31.580Z,12.23
2019-02-23T06:49:03.591Z,10.47
2019-02-23T06:51:44.893Z,10.40
2019-02-23T06:54:16.407Z,10.83
2019-02-23T06:56:49.645Z,10.97
2019-02-23T06:59:21.517Z,10.77
2019-02-23T07:01:52.536Z,10.77
2019-02-23T07:04:23.653Z,11.17
2019-02-23T07:06:55.478Z,11.07
2019-02-23T07:09:27.082Z,9.50
2019-02-23T07:11:58.576Z,10.10
2019-02-23T07:14:38.584Z,9.23
2019-02-23T07:17:10.116Z,9.40
2019-02-23T07:19:41.130Z,9.17
2019-02-23T07:22:15.852Z,8.67
2019-02-23T07:24:46.250Z,8.93
2019-02-23T07:27:27.277Z,9.33
2019-02-23T07:29:59.064Z,9.17
2019-02-23T07:32:29.948Z,9.07
2019-02-23T07:35:02.810Z,9.77
2019-02-23T07:37:36.524Z,8.97
2019-02-23T07:40:09.512Z,9.30
2019-02-23T07:42:48.010Z,8.30
2019-02-23T07:46:00.643Z,9.77
2019-02-23T07:48:32.717Z,7.77
2019-02-23T07:51:04.120Z,8.73
2019-02-23T07:53:35.388Z,8.00
2019-02-23T07:56:15.597Z,8.30
2019-02-23T07:58:53.167Z,8.27
2019-02-23T08:01:32.978Z,8.20
2019-02-23T08:04:04.941Z,8.40
2019-02-23T08:06:36.859Z,6.17
2019-02-23T08:09:09.610Z,7.20
2019-02-23T08:12:07.223Z,8.10
2019-02-23T08:14:38.729Z,7.93
2019-02-23T08:17:09.639Z,8.23
2019-02-23T08:19:40.916Z,7.60
2019-02-23T08:22:12.203Z,6.70
2019-02-23T08:25:43.717Z,8.67
2019-02-23T08:28:14.118Z,5.90
2019-02-23T08:31:01.712Z,7.60
2019-02-23T08:33:32.704Z,7.57
2019-02-23T08:36:03.819Z,7.67
2019-02-23T08:38:35.037Z,7.37
2019-02-23T08:41:05.732Z,7.63
2019-02-23T08:43:37.081Z,7.33
2019-02-23T08:46:08.434Z,7.97
2019-02-23T08:48:39.459Z,7.20
2019-02-23T08:51:10.822Z,7.60
2019-02-23T08:53:44.021Z,7.07
2019-02-23T08:56:15.420Z,7.67
2019-02-23T08:58:46.069Z,7.63
2019-02-23T09:01:17.497Z,8.17
2019-02-23T09:03:49.800Z,8.47
2019-02-23T09:06:21.781Z,7.80
2019-02-23T09:08:53.168Z,10.00
2019-02-23T09:11:24.564Z,8.43
2019-02-23T09:14:05.593Z,8.40
2019-02-23T09:16:36.961Z,8.13
2019-02-23T09:19:08.567Z,8.20
2019-02-23T09:21:38.895Z,8.13
2019-02-23T09:24:11.300Z,8.37
2019-02-23T09:26:42.790Z,8.90
2019-02-23T09:29:14.353Z,7.67
2019-02-23T09:31:45.956Z,8.00
2019-02-23T09:34:18.104Z,7.40
2019-02-23T09:36:49.720Z,5.67
2019-02-23T09:39:21.467Z,7.07
2019-02-23T09:41:53.009Z,8.00
2019-02-23T09:44:24.073Z,7.60
2019-02-23T09:46:55.034Z,7.10
2019-02-23T09:49:26.784Z,8.23
2019-02-23T09:51:58.151Z,6.87
2019-02-23T09:54:31.063Z,8.10
2019-02-23T09:57:03.085Z,7.77
2019-02-23T09:59:35.179Z,6.20
2019-02-23T10:02:07.645Z,6.70
2019-02-23T10:04:40.297Z,7.07
2019-02-23T10:07:11.590Z,6.70
2019-02-23T10:09:42.996Z,5.50
2019-02-23T10:12:14.322Z,6.80
2019-02-23T10:14:45.378Z,8.03
2019-02-23T10:17:16.728Z,6.90
2019-02-23T10:19:47.769Z,8.10
2019-02-23T10:22:19.847Z,5.00
2019-02-23T10:24:50.956Z,6.97
2019-02-23T10:27:21.984Z,5.10
2019-02-23T10:29:53.369Z,7.90
2019-02-23T10:32:24.024Z,8.17
2019-02-23T10:34:55.917Z,7.80
2019-02-23T10:37:27.335Z,7.70
2019-02-23T10:39:58.756Z,7.17
2019-02-23T10:42:36.758Z,7.40
2019-02-23T10:45:09.030Z,6.77
2019-02-23T10:47:40.461Z,7.83
2019-02-23T10:50:11.839Z,7.37
2019-02-23T10:52:43.166Z,8.13
2019-02-23T10:55:13.536Z,7.50
2019-02-23T10:57:45.149Z,7.20
2019-02-23T11:00:20.772Z,8.00
2019-02-23T11:03:05.092Z,7.57
2019-02-23T11:05:36.829Z,5.70
2019-02-23T11:08:07.571Z,6.93
2019-02-23T11:10:38.590Z,6.47
2019-02-23T11:13:10.333Z,7.03
2019-02-23T11:15:52.865Z,7.67
2019-02-23T11:18:23.657Z,5.97
2019-02-23T11:20:55.318Z,6.23
2019-02-23T11:23:26.323Z,6.23
2019-02-23T11:25:59.163Z,6.20
2019-02-23T11:28:30.224Z,5.60
2019-02-23T11:31:01.053Z,5.33
2019-02-23T11:33:41.823Z,6.37
2019-02-23T11:36:13.273Z,5.00
2019-02-23T11:38:53.323Z,5.47
2019-02-23T11:42:05.332Z,5.73
2019-02-23T11:44:38.460Z,5.03
2019-02-23T11:47:10.154Z,5.20
2019-02-23T11:49:41.523Z,4.73
2019-02-23T11:52:12.282Z,5.00
2019-02-23T11:54:44.253Z,4.37
2019-02-23T11:57:40.492Z,6.00
2019-02-23T12:00:11.713Z,5.00
2019-02-23T12:02:51.999Z,4.53
2019-02-23T12:05:16.740Z,5.33
2019-02-23T12:07:48.718Z,4.70
2019-02-23T12:10:19.338Z,4.90
2019-02-23T12:12:51.343Z,5.13
2019-02-23T12:16:26.468Z,5.03
2019-02-23T12:18:57.156Z,5.37
2019-02-23T12:21:28.428Z,4.87
2019-02-23T12:24:06.041Z,4.70
2019-02-23T12:26:33.638Z,4.43
2019-02-23T12:29:04.616Z,5.07
2019-02-23T12:31:35.680Z,4.57
2019-02-23T12:34:06.365Z,4.67
2019-02-23T12:36:38.014Z,3.70
2019-02-23T12:39:09.091Z,3.80
2019-02-23T12:41:40.805Z,4.10
2019-02-23T12:44:12.514Z,3.97
2019-02-23T12:46:44.308Z,3.87
2019-02-23T12:49:15.699Z,3.70
2019-02-23T12:51:47.167Z,4.53
2019-02-23T12:54:18.220Z,4.10
2019-02-23T12:56:49.826Z,3.97
2019-02-23T12:59:21.189Z,3.77
2019-02-23T13:01:52.974Z,3.70
2019-02-23T13:08:12.463Z,4.33
2019-02-23T13:10:43.363Z,4.10
2019-02-23T13:13:54.365Z,4.50
2019-02-23T13:16:34.840Z,4.50
2019-02-23T13:19:44.382Z,4.10
2019-02-23T13:23:02.495Z,4.80
2019-02-23T13:26:16.463Z,4.20
2019-02-23T13:29:22.979Z,4.30
2019-02-23T13:32:33.835Z,4.20
2019-02-23T13:36:15.150Z,4.70
2019-02-23T13:39:55.510Z,4.00
2019-02-23T13:43:21.953Z,3.90
2019-02-23T13:46:55.010Z,4.27
2019-02-23T13:50:25.151Z,3.90
2019-02-23T13:53:35.502Z,3.50
2019-02-23T13:57:23.553Z,3.40
2019-02-23T14:00:37.904Z,3.53
2019-02-23T14:03:58.997Z,3.93
2019-02-23T14:07:43.765Z,4.10
2019-02-23T14:11:02.752Z,4.20
2019-02-23T14:18:10.825Z,3.27
2019-02-23T14:21:37.788Z,3.40
2019-02-23T14:25:26.601Z,3.43
2019-02-23T14:29:15.467Z,3.50
2019-02-23T14:33:02.694Z,3.40
2019-02-23T14:36:05.219Z,2.93
2019-02-23T14:40:03.196Z,3.20
2019-02-23T14:43:37.350Z,3.00
2019-02-23T14:46:46.711Z,3.00
2019-02-23T14:49:53.390Z,3.03
2019-02-23T14:52:59.108Z,3.07
2019-02-23T14:56:03.673Z,3.20
2019-02-23T14:59:20.705Z,2.70
2019-02-23T15:02:51.529Z,2.70
2019-02-23T15:06:31.181Z,2.80
2019-02-23T15:09:54.635Z,2.80
2019-02-23T15:13:31.948Z,2.20
2019-02-23T15:17:15.633Z,2.20
2019-02-23T15:20:46.265Z,2.60
2019-02-23T15:24:00.235Z,2.03
2019-02-23T15:28:01.330Z,2.93
2019-02-23T15:31:40.761Z,2.27
2019-02-23T15:35:26.976Z,2.50
2019-02-23T15:38:52.895Z,2.43
2019-02-23T15:42:22.127Z,2.17
2019-02-23T15:45:52.040Z,2.43
2019-02-23T15:49:33.871Z,2.40
2019-02-23T15:52:08.556Z,2.33
2019-02-23T15:54:57.727Z,2.20
2019-02-23T15:57:33.292Z,2.50
2019-02-23T16:00:05.574Z,2.10
2019-02-23T16:02:37.248Z,2.23
2019-02-23T16:05:08.086Z,2.20
2019-02-23T16:07:45.373Z,2.60
2019-02-23T16:10:27.785Z,2.60
2019-02-23T16:13:00.355Z,2.60
2019-02-23T16:15:32.990Z,2.73
2019-02-23T16:18:15.595Z,2.60
2019-02-23T16:20:47.159Z,2.83
2019-02-23T16:23:17.792Z,3.17
2019-02-23T16:25:49.221Z,2.77
2019-02-23T16:28:22.512Z,2.73
2019-02-23T16:30:54.348Z,3.33
2019-02-23T16:33:25.700Z,3.07
2019-02-23T16:35:57.396Z,2.90
2019-02-23T16:38:44.486Z,2.53
2019-02-23T16:41:15.831Z,2.80
2019-02-23T16:43:47.521Z,2.83
2019-02-23T16:46:19.744Z,2.80
2019-02-23T16:48:51.093Z,3.20
2019-02-23T16:51:23.114Z,2.93
2019-02-23T16:53:53.565Z,2.83
2019-02-23T16:56:24.949Z,3.20
2019-02-23T16:58:56.620Z,3.87
2019-02-23T17:01:28.083Z,2.97
2019-02-23T17:03:59.390Z,2.97
2019-02-23T17:06:33.446Z,3.67
2019-02-23T17:09:04.969Z,3.07
2019-02-23T17:11:41.578Z,4.10
2019-02-23T17:14:31.656Z,3.80
2019-02-23T17:17:02.901Z,2.83
2019-02-23T17:19:34.818Z,3.17
2019-02-23T17:22:16.154Z,4.20
2019-02-23T17:25:09.184Z,4.20
2019-02-23T17:27:39.517Z,4.10
2019-02-23T17:30:14.816Z,4.60
2019-02-23T17:32:46.285Z,4.27
2019-02-23T17:35:17.791Z,5.33
2019-02-23T17:37:52.354Z,5.83
2019-02-23T17:40:26.355Z,4.17
2019-02-23T17:42:57.401Z,4.53
2019-02-23T17:45:40.115Z,3.70
2019-02-23T17:48:23.615Z,3.67
2019-02-23T17:50:55.201Z,4.23
2019-02-23T17:53:27.700Z,4.10
2019-02-23T17:55:58.019Z,4.20
2019-02-23T17:58:29.334Z,4.07
2019-02-23T18:01:02.125Z,3.67
2019-02-23T18:03:33.362Z,3.77
2019-02-23T18:06:05.497Z,3.83
2019-02-23T18:09:06.272Z,3.70
2019-02-23T18:11:36.688Z,3.93
2019-02-23T18:14:08.894Z,4.00
2019-02-23T18:16:51.957Z,4.20
2019-02-23T18:19:23.359Z,4.03
2019-02-23T18:21:55.232Z,3.70
2019-02-23T18:24:42.126Z,4.30
2019-02-23T18:27:46.214Z,3.17
2019-02-23T18:30:24.199Z,3.60
2019-02-23T18:33:03.419Z,3.50
2019-02-23T18:35:35.463Z,4.17
2019-02-23T18:38:07.745Z,4.30
2019-02-23T18:40:39.920Z,4.70
2019-02-23T18:43:11.538Z,3.93
2019-02-23T18:45:47.657Z,4.57
2019-02-23T18:48:25.881Z,3.73
2019-02-23T18:51:00.760Z,3.83
2019-02-23T18:53:31.863Z,4.53
2019-02-23T18:56:02.252Z,4.00
2019-02-23T18:58:33.543Z,3.73
2019-02-23T19:01:05.210Z,3.60
2019-02-23T19:03:36.522Z,4.03
2019-02-23T19:06:07.800Z,4.30
2019-02-23T19:08:38.789Z,4.50
2019-02-23T19:11:10.429Z,3.70
2019-02-23T19:13:41.547Z,4.13
2019-02-23T19:16:13.111Z,3.93
2019-02-23T19:18:44.334Z,4.70
2019-02-23T19:21:15.877Z,4.00
2019-02-23T19:23:47.873Z,4.63
2019-02-23T19:26:18.447Z,3.90
2019-02-23T19:28:49.414Z,4.43
2019-02-23T19:31:20.561Z,4.73
2019-02-23T19:33:52.445Z,3.23
2019-02-23T19:36:24.073Z,4.90
2019-02-23T19:38:56.315Z,3.87
2019-02-23T19:41:29.252Z,4.20
2019-02-23T19:44:01.079Z,4.03
2019-02-23T19:46:32.517Z,4.17
2019-02-23T19:49:03.882Z,3.97
2019-02-23T19:51:34.627Z,3.73
2019-02-23T19:54:06.210Z,3.80
2019-02-23T19:56:46.619Z,3.57
2019-02-23T19:59:11.628Z,4.13
2019-02-23T20:01:43.588Z,4.00
2019-02-23T20:04:15.576Z,3.53
2019-02-23T20:06:46.995Z,4.13
2019-02-23T20:09:18.640Z,3.83
2019-02-23T20:11:49.836Z,3.07
2019-02-23T20:14:21.260Z,3.27
2019-02-23T20:16:52.305Z,4.27
2019-02-23T20:19:24.010Z,4.00
2019-02-23T20:21:55.628Z,3.70
2019-02-23T20:24:26.697Z,3.93
2019-02-23T20:26:58.076Z,3.87
2019-02-23T20:29:29.814Z,4.03
2019-02-23T20:32:01.561Z,4.13
2019-02-23T20:34:32.191Z,3.77
2019-02-23T20:37:03.884Z,3.80
2019-02-23T20:39:35.197Z,3.57
2019-02-23T20:42:06.679Z,3.60
2019-02-23T20:44:37.861Z,3.80
2019-02-23T20:47:09.606Z,3.47
2019-02-23T20:49:40.961Z,3.00
2019-02-23T20:52:12.691Z,3.80
2019-02-23T20:54:50.423Z,3.30
2019-02-23T20:57:21.944Z,3.67
2019-02-23T20:59:53.709Z,3.20
2019-02-23T21:02:25.107Z,3.67
2019-02-23T21:04:56.286Z,4.17
2019-02-23T21:07:27.632Z,3.60
2019-02-23T21:09:58.305Z,5.70
2019-02-23T21:12:29.437Z,3.77
2019-02-23T21:15:01.819Z,3.30
2019-02-23T21:17:57.672Z,2.47
2019-02-23T21:20:29.214Z,2.67
2019-02-23T21:22:59.928Z,3.30
2019-02-23T21:25:31.892Z,2.80
2019-02-23T21:28:05.526Z,3.40
2019-02-23T21:30:45.405Z,7.07
2019-02-23T21:33:16.150Z,3.73
2019-02-23T21:35:49.608Z,3.03
2019-02-23T21:38:22.036Z,2.83
2019-02-23T21:41:05.196Z,2.97
2019-02-23T21:43:48.514Z,3.30
2019-02-23T21:46:19.682Z,3.13
2019-02-23T21:48:51.418Z,3.10
2019-02-23T21:51:23.540Z,3.20
2019-02-23T21:54:00.686Z,3.40
2019-02-23T21:56:33.272Z,2.80
2019-02-23T21:59:04.559Z,2.90
2019-02-23T22:01:35.712Z,2.93
2019-02-23T22:04:38.541Z,2.10
2019-02-23T22:07:11.834Z,3.17
2019-02-23T22:09:54.662Z,2.73
2019-02-23T22:12:29.121Z,3.13
2019-02-23T22:15:02.049Z,3.23
2019-02-23T22:17:35.039Z,2.93
2019-02-23T22:20:06.240Z,3.10
2019-02-23T22:22:38.619Z,3.23
2019-02-23T22:25:10.507Z,2.80
2019-02-23T22:27:44.463Z,2.67
2019-02-23T22:30:26.359Z,3.20
2019-02-23T22:33:03.597Z,2.50
2019-02-23T22:35:35.426Z,3.13
2019-02-23T22:38:07.708Z,3.10
2019-02-23T22:40:39.549Z,3.70
2019-02-23T22:43:14.641Z,3.00
2019-02-23T22:45:46.680Z,2.90
2019-02-23T22:48:35.913Z,3.03
2019-02-23T22:51:15.218Z,3.00
2019-02-23T22:54:01.920Z,2.70
2019-02-23T22:56:33.685Z,2.90
2019-02-23T22:59:04.737Z,2.80
2019-02-23T23:01:50.893Z,3.00
2019-02-23T23:04:22.130Z,2.97
2019-02-23T23:06:53.847Z,3.20
2019-02-23T23:09:25.733Z,2.70
2019-02-23T23:11:58.402Z,2.77
2019-02-23T23:14:30.022Z,3.30
2019-02-23T23:17:01.206Z,3.00
2019-02-23T23:19:37.486Z,2.80
2019-02-23T23:22:08.784Z,2.63
2019-02-23T23:24:40.422Z,2.60
2019-02-23T23:27:12.014Z,2.80
2019-02-23T23:29:44.011Z,3.13
2019-02-23T23:32:14.922Z,3.07
2019-02-23T23:34:47.180Z,2.90
2019-02-23T23:37:21.548Z,2.33
2019-02-23T23:39:52.865Z,2.97
2019-02-23T23:42:24.182Z,2.30
2019-02-23T23:44:55.639Z,2.43
2019-02-23T23:47:31.336Z,2.53
2019-02-23T23:50:05.252Z,2.43
2019-02-23T23:52:36.885Z,3.03
2019-02-23T23:55:09.132Z,2.43
2019-02-23T23:57:40.469Z,2.60
